Time;durP1;ratioP1;P1;durP2;ratioP2;P2;SDS_P1;SDS_P2;PMS_P1;PMS_P2;Temp;Humidity;BMP_temperature;BMP_pressure;BME280_temperature;BME280_humidity;BME280_pressure;Samples;Min_cycle;Max_cycle;Signal;HPM_P1;HPM_P2
2022/03/20 00:00:53;;;;;;;23.93;16.97;;;;;;;;;;6159670;23;20165;-81
2022/03/20 00:03:20;;;;;;;26.40;17.87;;;;;;;;;;6160089;23;20650;-80
2022/03/20 00:05:48;;;;;;;24.17;17.03;;;;;;;;;;6160322;23;20534;-80
2022/03/20 00:08:14;;;;;;;20.63;17.00;;;;;;;;;;6160029;23;20175;-81
2022/03/20 00:10:44;;;;;;;21.57;15.37;;;;;;;;;;6160503;23;20157;-80
2022/03/20 00:13:10;;;;;;;23.23;16.67;;;;;;;;;;6159887;23;20210;-81
2022/03/20 00:15:40;;;;;;;23.73;16.13;;;;;;;;;;6133098;23;20212;-80
2022/03/20 00:18:06;;;;;;;21.30;16.63;;;;;;;;;;6160236;23;20177;-81
2022/03/20 00:20:36;;;;;;;23.70;16.90;;;;;;;;;;6133085;23;20577;-80
2022/03/20 00:23:04;;;;;;;22.37;15.50;;;;;;;;;;6159659;23;20155;-80
2022/03/20 00:25:31;;;;;;;23.43;16.70;;;;;;;;;;6159623;23;20589;-80
2022/03/20 00:27:57;;;;;;;22.17;16.00;;;;;;;;;;6133585;23;20248;-80
2022/03/20 00:30:23;;;;;;;22.40;16.13;;;;;;;;;;6166935;23;20147;-80
2022/03/20 00:32:49;;;;;;;21.53;17.03;;;;;;;;;;6168513;23;20157;-80
2022/03/20 00:35:15;;;;;;;22.17;16.70;;;;;;;;;;6165205;23;20178;-81
2022/03/20 00:37:41;;;;;;;23.90;16.80;;;;;;;;;;6160421;23;20158;-80
2022/03/20 00:40:28;;;;;;;24.40;17.03;;;;;;;;;;6160144;23;20600;-81
2022/03/20 00:43:41;;;;;;;21.27;16.80;;;;;;;;;;6133629;23;20597;-80
2022/03/20 00:46:09;;;;;;;21.37;16.10;;;;;;;;;;6151989;23;20158;-80
2022/03/20 00:48:35;;;;;;;22.00;15.90;;;;;;;;;;6133387;23;20189;-81
2022/03/20 00:51:03;;;;;;;20.93;15.50;;;;;;;;;;6134113;23;20214;-80
2022/03/20 00:53:30;;;;;;;20.50;16.40;;;;;;;;;;6159869;23;20680;-81
2022/03/20 00:55:56;;;;;;;21.77;16.33;;;;;;;;;;6159898;23;20154;-80
2022/03/20 00:58:22;;;;;;;23.23;15.97;;;;;;;;;;6133524;23;20596;-80
2022/03/20 01:00:50;;;;;;;20.43;15.53;;;;;;;;;;6160123;23;20194;-80
2022/03/20 01:03:16;;;;;;;19.80;15.50;;;;;;;;;;6159111;23;20192;-80
2022/03/20 01:05:42;;;;;;;23.77;16.00;;;;;;;;;;6135079;23;20474;-81
2022/03/20 01:08:09;;;;;;;22.90;15.70;;;;;;;;;;6161201;23;20204;-80
2022/03/20 01:10:35;;;;;;;25.10;16.73;;;;;;;;;;6142715;23;20151;-80
2022/03/20 01:13:01;;;;;;;21.40;16.20;;;;;;;;;;6144037;23;20161;-80
2022/03/20 01:15:27;;;;;;;22.13;16.23;;;;;;;;;;6167283;23;20470;-80
2022/03/20 01:17:53;;;;;;;23.30;16.63;;;;;;;;;;6162220;23;20147;-82
2022/03/20 01:20:19;;;;;;;19.80;15.77;;;;;;;;;;6162876;23;20146;-80
2022/03/20 01:22:45;;;;;;;22.40;16.00;;;;;;;;;;6162130;23;20150;-80
2022/03/20 01:25:11;;;;;;;24.67;17.13;;;;;;;;;;6161809;23;20173;-81
2022/03/20 01:27:38;;;;;;;21.90;15.90;;;;;;;;;;6161824;23;20213;-80
2022/03/20 01:30:05;;;;;;;23.67;17.57;;;;;;;;;;6135267;23;20181;-80
2022/03/20 01:32:31;;;;;;;20.87;16.20;;;;;;;;;;6135570;23;20154;-80
2022/03/20 01:34:57;;;;;;;21.70;16.30;;;;;;;;;;6156590;23;20189;-80
2022/03/20 01:37:23;;;;;;;22.37;15.67;;;;;;;;;;6161138;23;20144;-80
2022/03/20 01:39:49;;;;;;;21.80;16.20;;;;;;;;;;6133552;23;20155;-81
2022/03/20 01:42:15;;;;;;;23.13;17.00;;;;;;;;;;6133115;23;20654;-82
2022/03/20 01:44:41;;;;;;;20.53;16.00;;;;;;;;;;6158605;23;20207;-81
2022/03/20 01:47:08;;;;;;;22.53;16.23;;;;;;;;;;6159111;23;20154;-81
2022/03/20 01:49:34;;;;;;;21.17;15.90;;;;;;;;;;6132861;23;20183;-81
2022/03/20 01:52:34;;;;;;;24.20;17.07;;;;;;;;;;6132823;23;20186;-80
2022/03/20 01:54:53;;;;;;;25.17;16.57;;;;;;;;;;6153750;23;20167;-81
2022/03/20 01:57:20;;;;;;;22.87;16.30;;;;;;;;;;6161278;23;20631;-80
2022/03/20 01:59:47;;;;;;;19.50;15.47;;;;;;;;;;6161612;23;20143;-80
2022/03/20 02:02:13;;;;;;;21.73;16.37;;;;;;;;;;6134193;23;20150;-80
2022/03/20 02:04:39;;;;;;;20.70;16.20;;;;;;;;;;6160927;23;20524;-80
2022/03/20 02:07:06;;;;;;;22.33;17.03;;;;;;;;;;6134655;23;20601;-80
2022/03/20 02:09:33;;;;;;;25.93;17.20;;;;;;;;;;6134879;23;20180;-80
2022/03/20 02:11:59;;;;;;;24.63;16.03;;;;;;;;;;6160509;23;20147;-79
2022/03/20 02:14:26;;;;;;;23.40;17.23;;;;;;;;;;6134468;23;20220;-80
2022/03/20 02:16:53;;;;;;;22.50;17.33;;;;;;;;;;6160624;23;20148;-80
2022/03/20 02:19:19;;;;;;;22.77;16.90;;;;;;;;;;6134883;23;20184;-80
2022/03/20 02:21:46;;;;;;;23.67;17.27;;;;;;;;;;6160619;23;20151;-80
2022/03/20 02:24:27;;;;;;;23.00;16.93;;;;;;;;;;6160848;23;20175;-80
2022/03/20 02:27:02;;;;;;;21.43;16.37;;;;;;;;;;6134885;23;20214;-80
2022/03/20 02:29:28;;;;;;;22.93;16.13;;;;;;;;;;6160948;23;20178;-80
2022/03/20 02:31:54;;;;;;;23.23;17.30;;;;;;;;;;6161038;23;20200;-81
2022/03/20 02:34:21;;;;;;;22.20;17.23;;;;;;;;;;6161019;23;20167;-80
2022/03/20 02:36:47;;;;;;;25.70;17.50;;;;;;;;;;6134679;23;20675;-80
2022/03/20 02:39:13;;;;;;;22.53;16.90;;;;;;;;;;6160629;23;20176;-80
2022/03/20 02:41:39;;;;;;;26.03;18.27;;;;;;;;;;6160665;23;20321;-80
2022/03/20 02:44:05;;;;;;;21.97;17.27;;;;;;;;;;6158800;23;20173;-80
2022/03/20 02:46:37;;;;;;;24.27;18.03;;;;;;;;;;6133170;23;20178;-79
2022/03/20 02:49:05;;;;;;;24.97;17.73;;;;;;;;;;6158546;23;20173;-81
2022/03/20 02:51:31;;;;;;;28.77;18.33;;;;;;;;;;6157764;23;20226;-81
2022/03/20 02:53:57;;;;;;;27.00;17.77;;;;;;;;;;6159351;23;20226;-80
2022/03/20 02:56:23;;;;;;;27.13;18.27;;;;;;;;;;6134821;23;20205;-80
2022/03/20 02:58:49;;;;;;;27.70;18.47;;;;;;;;;;6160762;23;20237;-80
2022/03/20 03:01:16;;;;;;;24.23;18.57;;;;;;;;;;6159938;23;20161;-80
2022/03/20 03:03:45;;;;;;;25.63;17.97;;;;;;;;;;6160043;23;20652;-80
2022/03/20 03:06:11;;;;;;;23.13;16.63;;;;;;;;;;6160351;23;20232;-80
2022/03/20 03:11:22;;;;;;;25.10;17.13;;;;;;;;;;6160966;23;20158;-79
2022/03/20 03:13:48;;;;;;;20.80;17.10;;;;;;;;;;6133767;23;20523;-80
2022/03/20 03:16:15;;;;;;;26.70;18.40;;;;;;;;;;6159926;23;20155;-80
2022/03/20 03:18:43;;;;;;;25.63;18.10;;;;;;;;;;6133826;23;20161;-80
2022/03/20 03:21:13;;;;;;;27.33;17.40;;;;;;;;;;6159913;23;20153;-80
2022/03/20 03:23:39;;;;;;;23.90;18.23;;;;;;;;;;6133866;23;20185;-80
2022/03/20 03:26:05;;;;;;;27.30;18.90;;;;;;;;;;6160106;23;20182;-80
2022/03/20 03:28:34;;;;;;;25.50;18.03;;;;;;;;;;6159763;23;20660;-80
2022/03/20 03:31:01;;;;;;;24.10;17.90;;;;;;;;;;6159850;23;20148;-80
2022/03/20 03:33:27;;;;;;;21.77;17.43;;;;;;;;;;6159618;23;20246;-80
2022/03/20 03:35:54;;;;;;;23.00;18.03;;;;;;;;;;6160840;23;20211;-80
2022/03/20 03:38:30;;;;;;;25.63;18.80;;;;;;;;;;6159966;23;20157;-80
2022/03/20 03:40:57;;;;;;;24.97;17.60;;;;;;;;;;6160159;23;20171;-80
2022/03/20 03:43:23;;;;;;;25.30;18.70;;;;;;;;;;6159749;23;20168;-80
2022/03/20 03:45:53;;;;;;;24.33;18.77;;;;;;;;;;6160177;23;20152;-79
2022/03/20 03:48:19;;;;;;;23.60;17.87;;;;;;;;;;6159961;23;20182;-80
2022/03/20 03:50:46;;;;;;;25.40;18.30;;;;;;;;;;6160771;23;20148;-80
2022/03/20 03:53:13;;;;;;;22.53;17.87;;;;;;;;;;6159920;23;20152;-80
2022/03/20 03:55:41;;;;;;;26.50;18.27;;;;;;;;;;6160092;23;20594;-80
2022/03/20 03:58:07;;;;;;;25.90;18.20;;;;;;;;;;6135029;23;20562;-80
2022/03/20 04:00:34;;;;;;;24.80;18.10;;;;;;;;;;6160102;23;20149;-80
2022/03/20 04:03:00;;;;;;;25.37;18.27;;;;;;;;;;6158953;23;20595;-81
2022/03/20 04:05:28;;;;;;;24.23;17.87;;;;;;;;;;6160320;23;20646;-80
2022/03/20 04:07:54;;;;;;;23.50;18.33;;;;;;;;;;6160029;23;20160;-80
2022/03/20 04:10:21;;;;;;;26.07;18.20;;;;;;;;;;6159567;23;20176;-79
2022/03/20 04:12:47;;;;;;;22.57;17.20;;;;;;;;;;6160004;23;20240;-80
2022/03/20 04:15:14;;;;;;;25.70;17.57;;;;;;;;;;6133625;23;20652;-80
2022/03/20 04:17:42;;;;;;;27.73;17.77;;;;;;;;;;6159926;23;20488;-80
2022/03/20 04:20:08;;;;;;;30.67;18.80;;;;;;;;;;6159533;23;20149;-80
2022/03/20 04:22:36;;;;;;;27.97;19.40;;;;;;;;;;6133294;23;20255;-80
2022/03/20 04:25:02;;;;;;;25.00;18.40;;;;;;;;;;6159542;23;20481;-80
2022/03/20 04:27:29;;;;;;;27.27;19.33;;;;;;;;;;6133624;23;20151;-80
2022/03/20 04:29:55;;;;;;;28.37;18.63;;;;;;;;;;6159473;23;20176;-80
2022/03/20 04:32:21;;;;;;;25.23;17.33;;;;;;;;;;6159703;23;20156;-80
2022/03/20 04:34:47;;;;;;;22.87;17.00;;;;;;;;;;6159547;23;20206;-80
2022/03/20 04:37:14;;;;;;;26.67;17.87;;;;;;;;;;6159663;23;20155;-80
2022/03/20 04:39:40;;;;;;;22.97;17.13;;;;;;;;;;6159629;23;20176;-80
2022/03/20 04:42:09;;;;;;;25.83;18.90;;;;;;;;;;6159547;23;20174;-80
2022/03/20 04:44:35;;;;;;;26.10;18.83;;;;;;;;;;6159707;23;20183;-80
2022/03/20 04:47:01;;;;;;;27.83;19.07;;;;;;;;;;6159319;23;20482;-79
2022/03/20 05:00:25;;;;;;;25.93;19.30;;;;;;;;;;6165033;23;20152;-81
2022/03/20 05:02:51;;;;;;;25.03;19.07;;;;;;;;;;6144506;23;20166;-80
2022/03/20 05:05:18;;;;;;;27.83;19.20;;;;;;;;;;6167039;23;20222;-82
2022/03/20 05:07:44;;;;;;;26.17;18.93;;;;;;;;;;6159482;23;20156;-81
2022/03/20 05:15:40;;;;;;;26.30;19.30;;;;;;;;;;6159226;23;20150;-80
2022/03/20 05:18:07;;;;;;;26.47;18.50;;;;;;;;;;6159543;23;20151;-81
2022/03/20 05:20:33;;;;;;;28.53;20.30;;;;;;;;;;6159648;23;20149;-80
2022/03/20 05:23:00;;;;;;;28.33;20.03;;;;;;;;;;6158095;23;20153;-81
2022/03/20 05:25:30;;;;;;;30.10;19.03;;;;;;;;;;6158863;23;20537;-80
2022/03/20 05:27:56;;;;;;;28.37;19.43;;;;;;;;;;6159973;23;20221;-80
2022/03/20 05:30:23;;;;;;;30.53;20.87;;;;;;;;;;6133603;23;20213;-80
2022/03/20 05:32:50;;;;;;;30.13;20.67;;;;;;;;;;6159656;23;20153;-79
2022/03/20 05:35:16;;;;;;;27.63;20.73;;;;;;;;;;6159328;23;20169;-80
2022/03/20 05:37:42;;;;;;;25.93;19.07;;;;;;;;;;6133282;23;20558;-80
2022/03/20 05:40:09;;;;;;;30.33;20.67;;;;;;;;;;6159260;23;20153;-81
2022/03/20 05:42:38;;;;;;;28.97;20.30;;;;;;;;;;6133799;23;20612;-80
2022/03/20 05:45:05;;;;;;;28.40;20.10;;;;;;;;;;6159441;23;20176;-80
2022/03/20 05:47:31;;;;;;;31.63;20.67;;;;;;;;;;6159064;23;20152;-82
2022/03/20 05:49:59;;;;;;;33.17;21.37;;;;;;;;;;6159293;23;20640;-81
2022/03/20 05:52:25;;;;;;;31.63;21.67;;;;;;;;;;6160893;23;20585;-80
2022/03/20 05:54:51;;;;;;;27.63;19.87;;;;;;;;;;6134381;23;20177;-81
2022/03/20 06:00:03;;;;;;;28.80;19.77;;;;;;;;;;6161524;23;20186;-80
2022/03/20 06:02:30;;;;;;;27.27;20.10;;;;;;;;;;6134285;23;20549;-80
2022/03/20 06:04:55;;;;;;;29.30;20.17;;;;;;;;;;6161368;23;20187;-80
2022/03/20 06:07:21;;;;;;;27.83;19.10;;;;;;;;;;6161662;23;20620;-80
2022/03/20 06:09:47;;;;;;;26.77;20.23;;;;;;;;;;6161326;23;20183;-81
2022/03/20 06:12:13;;;;;;;28.17;19.63;;;;;;;;;;6134959;23;20190;-80
2022/03/20 06:14:39;;;;;;;30.10;20.33;;;;;;;;;;6161017;23;20176;-80
2022/03/20 06:17:06;;;;;;;31.47;20.43;;;;;;;;;;6161940;23;20152;-80
2022/03/20 06:19:34;;;;;;;28.70;20.40;;;;;;;;;;6161188;23;20148;-80
2022/03/20 06:22:00;;;;;;;32.40;20.57;;;;;;;;;;6160526;23;20187;-80
2022/03/20 06:24:26;;;;;;;29.90;19.67;;;;;;;;;;6135728;23;20184;-80
2022/03/20 06:26:52;;;;;;;28.33;21.07;;;;;;;;;;6161269;23;20176;-80
2022/03/20 06:29:18;;;;;;;26.70;20.07;;;;;;;;;;6160731;23;20626;-80
2022/03/20 06:31:45;;;;;;;29.67;19.80;;;;;;;;;;6160826;23;20176;-80
2022/03/20 06:34:12;;;;;;;29.70;20.27;;;;;;;;;;6161258;23;20174;-79
2022/03/20 06:36:38;;;;;;;29.70;19.47;;;;;;;;;;6128454;23;20152;-79
2022/03/20 06:39:04;;;;;;;28.80;19.87;;;;;;;;;;6157752;23;20212;-79
2022/03/20 06:41:30;;;;;;;28.77;19.63;;;;;;;;;;6157971;23;20586;-80
2022/03/20 06:43:56;;;;;;;28.57;20.47;;;;;;;;;;6159127;23;20171;-80
2022/03/20 06:46:22;;;;;;;31.63;20.40;;;;;;;;;;6158470;23;20458;-80
2022/03/20 06:48:48;;;;;;;30.00;20.90;;;;;;;;;;6156321;23;20177;-81
2022/03/20 06:51:17;;;;;;;30.77;20.90;;;;;;;;;;6158573;23;20158;-80
2022/03/20 06:53:43;;;;;;;31.03;21.30;;;;;;;;;;6157659;23;20170;-80
2022/03/20 06:56:09;;;;;;;31.80;20.33;;;;;;;;;;6158341;23;20631;-79
2022/03/20 06:58:35;;;;;;;30.33;21.57;;;;;;;;;;6160460;23;20159;-79
2022/03/20 07:01:01;;;;;;;29.07;20.57;;;;;;;;;;6159477;23;20153;-80
2022/03/20 07:03:28;;;;;;;30.20;20.93;;;;;;;;;;6160178;23;20269;-79
2022/03/20 07:05:54;;;;;;;32.47;20.37;;;;;;;;;;6160519;23;20162;-79
2022/03/20 07:08:21;;;;;;;31.53;21.57;;;;;;;;;;6159744;23;20316;-79
2022/03/20 07:10:47;;;;;;;34.87;21.13;;;;;;;;;;6160781;23;20611;-79
2022/03/20 07:15:59;;;;;;;32.20;22.40;;;;;;;;;;6160607;23;20195;-79
2022/03/20 07:18:25;;;;;;;31.93;21.30;;;;;;;;;;6160485;23;20162;-80
2022/03/20 07:20:51;;;;;;;30.70;21.03;;;;;;;;;;6133948;23;20178;-80
2022/03/20 07:23:17;;;;;;;31.80;21.63;;;;;;;;;;6160807;23;20553;-79
2022/03/20 07:31:14;;;;;;;29.90;21.70;;;;;;;;;;6160075;23;20161;-79
2022/03/20 07:33:41;;;;;;;32.47;22.10;;;;;;;;;;6132976;23;20175;-79
2022/03/20 07:36:07;;;;;;;32.63;20.97;;;;;;;;;;6159227;23;20162;-79
2022/03/20 07:38:35;;;;;;;34.30;21.50;;;;;;;;;;6159510;23;20223;-80
2022/03/20 07:41:01;;;;;;;31.10;20.80;;;;;;;;;;6159721;23;20159;-79
2022/03/20 07:43:27;;;;;;;27.20;20.00;;;;;;;;;;6160470;23;20182;-80
2022/03/20 07:45:55;;;;;;;34.90;22.03;;;;;;;;;;6159856;23;20158;-80
2022/03/20 07:48:23;;;;;;;32.47;22.40;;;;;;;;;;6160344;23;20248;-79
2022/03/20 07:50:50;;;;;;;33.30;22.03;;;;;;;;;;6160182;23;20178;-81
2022/03/20 07:53:17;;;;;;;27.67;20.87;;;;;;;;;;6159924;23;20148;-81
2022/03/20 07:55:44;;;;;;;31.20;21.63;;;;;;;;;;6159686;23;20163;-81
2022/03/20 07:58:10;;;;;;;30.93;22.17;;;;;;;;;;6133882;23;20155;-80
2022/03/20 08:00:38;;;;;;;29.77;21.67;;;;;;;;;;6160299;23;20161;-80
2022/03/20 08:03:05;;;;;;;29.93;21.53;;;;;;;;;;6159506;23;20223;-80
2022/03/20 08:05:31;;;;;;;31.77;22.37;;;;;;;;;;6159674;23;20229;-80
2022/03/20 08:07:58;;;;;;;32.03;22.37;;;;;;;;;;6133353;23;20359;-80
2022/03/20 08:10:24;;;;;;;29.77;21.83;;;;;;;;;;6160010;23;20151;-81
2022/03/20 08:12:50;;;;;;;33.93;22.87;;;;;;;;;;6158223;23;20148;-81
2022/03/20 08:15:16;;;;;;;31.70;22.30;;;;;;;;;;6158858;23;20186;-81
2022/03/20 08:17:44;;;;;;;31.17;21.93;;;;;;;;;;6158782;23;20209;-81
2022/03/20 08:20:10;;;;;;;31.10;22.40;;;;;;;;;;6160912;23;20594;-81
2022/03/20 08:22:37;;;;;;;32.60;22.67;;;;;;;;;;6136317;23;20214;-80
2022/03/20 08:25:03;;;;;;;30.57;21.87;;;;;;;;;;6159741;23;20194;-80
2022/03/20 08:27:29;;;;;;;32.90;22.87;;;;;;;;;;6159935;23;20151;-80
2022/03/20 08:29:57;;;;;;;34.37;22.83;;;;;;;;;;6159434;23;20174;-79
2022/03/20 08:32:24;;;;;;;31.77;23.70;;;;;;;;;;6160560;23;20155;-81
2022/03/20 08:34:50;;;;;;;35.33;24.40;;;;;;;;;;6159356;23;20303;-80
2022/03/20 08:37:16;;;;;;;30.70;22.67;;;;;;;;;;6160303;23;20151;-81
2022/03/20 08:39:42;;;;;;;34.47;24.00;;;;;;;;;;6171303;23;20217;-80
2022/03/20 08:42:08;;;;;;;36.23;23.47;;;;;;;;;;6176023;23;20158;-80
2022/03/20 08:44:34;;;;;;;34.00;23.97;;;;;;;;;;6139443;23;20515;-82
2022/03/20 08:47:01;;;;;;;32.43;23.40;;;;;;;;;;6160666;23;20154;-81
2022/03/20 08:49:27;;;;;;;34.23;24.70;;;;;;;;;;6160146;23;20202;-82
2022/03/20 08:51:53;;;;;;;35.70;24.37;;;;;;;;;;6160414;23;20144;-81
2022/03/20 08:54:19;;;;;;;36.23;23.40;;;;;;;;;;6134649;23;20356;-81
2022/03/20 08:56:45;;;;;;;32.07;22.93;;;;;;;;;;6162683;23;20228;-82
2022/03/20 08:59:11;;;;;;;35.30;24.33;;;;;;;;;;6161781;23;20165;-81
2022/03/20 09:01:37;;;;;;;30.47;23.17;;;;;;;;;;6161047;23;20155;-81
2022/03/20 09:04:03;;;;;;;30.63;22.57;;;;;;;;;;6141659;23;20190;-81
2022/03/20 09:06:29;;;;;;;32.93;23.93;;;;;;;;;;6160593;23;20163;-80
2022/03/20 09:08:55;;;;;;;31.03;22.47;;;;;;;;;;6158911;23;20237;-80
2022/03/20 09:11:21;;;;;;;34.43;23.77;;;;;;;;;;6159192;23;20143;-81
2022/03/20 09:13:47;;;;;;;32.20;23.00;;;;;;;;;;6158980;23;20176;-81
2022/03/20 09:18:59;;;;;;;33.10;23.17;;;;;;;;;;6160208;23;20146;-81
2022/03/20 09:21:25;;;;;;;32.00;23.43;;;;;;;;;;6156864;23;20283;-81
2022/03/20 09:23:51;;;;;;;32.27;23.20;;;;;;;;;;6159169;23;20727;-80
2022/03/20 09:26:18;;;;;;;29.93;22.00;;;;;;;;;;6160530;23;20213;-79
2022/03/20 09:28:45;;;;;;;30.63;22.77;;;;;;;;;;6161786;23;20175;-81
2022/03/20 09:31:11;;;;;;;31.17;22.90;;;;;;;;;;6161796;23;20215;-80
2022/03/20 09:33:37;;;;;;;33.97;23.33;;;;;;;;;;6161375;23;20198;-81
2022/03/20 09:36:03;;;;;;;31.73;23.20;;;;;;;;;;6162325;23;20235;-80
2022/03/20 09:38:29;;;;;;;29.33;21.70;;;;;;;;;;6160098;23;20161;-82
2022/03/20 09:40:59;;;;;;;31.10;21.40;;;;;;;;;;6162121;23;20154;-82
2022/03/20 09:43:25;;;;;;;28.80;21.07;;;;;;;;;;6161931;23;20626;-81
2022/03/20 09:45:53;;;;;;;34.47;22.73;;;;;;;;;;6161728;23;20229;-81
2022/03/20 09:48:19;;;;;;;27.47;21.13;;;;;;;;;;6161177;23;20557;-81
2022/03/20 09:50:46;;;;;;;27.43;21.50;;;;;;;;;;6162640;23;20192;-82
2022/03/20 09:53:12;;;;;;;28.53;21.67;;;;;;;;;;6163115;23;20219;-81
2022/03/20 09:55:38;;;;;;;28.07;20.77;;;;;;;;;;6162860;23;20482;-81
2022/03/20 09:58:04;;;;;;;27.03;20.57;;;;;;;;;;6161769;23;20232;-81
2022/03/20 10:00:30;;;;;;;30.60;21.37;;;;;;;;;;6161807;23;20149;-81
2022/03/20 10:02:56;;;;;;;30.10;21.90;;;;;;;;;;6159578;23;20152;-81
2022/03/20 10:05:26;;;;;;;27.97;20.17;;;;;;;;;;6161570;23;20192;-81
2022/03/20 10:07:52;;;;;;;29.50;20.87;;;;;;;;;;6134933;23;20160;-81
2022/03/20 10:10:19;;;;;;;24.57;19.57;;;;;;;;;;6135171;23;20571;-81
2022/03/20 10:12:51;;;;;;;26.83;20.33;;;;;;;;;;6135057;23;20266;-79
2022/03/20 10:15:43;;;;;;;25.83;19.20;;;;;;;;;;6160558;23;20173;-81
2022/03/20 10:18:17;;;;;;;26.40;19.43;;;;;;;;;;6132291;23;20149;-81
2022/03/20 10:20:47;;;;;;;25.23;19.37;;;;;;;;;;6161512;23;20214;-82
2022/03/20 10:23:28;;;;;;;20.50;17.30;;;;;;;;;;6161758;23;20152;-82
2022/03/20 10:25:54;;;;;;;24.80;18.73;;;;;;;;;;6135989;23;20189;-82
2022/03/20 10:28:20;;;;;;;25.43;16.50;;;;;;;;;;6167504;23;20229;-83
2022/03/20 10:30:56;;;;;;;23.77;17.03;;;;;;;;;;6142597;23;20234;-82
2022/03/20 10:33:22;;;;;;;18.23;16.00;;;;;;;;;;6163103;23;20171;-82
2022/03/20 10:36:07;;;;;;;21.03;16.73;;;;;;;;;;6135680;23;20298;-82
2022/03/20 10:38:36;;;;;;;19.07;16.43;;;;;;;;;;6136081;23;20150;-82
2022/03/20 10:41:02;;;;;;;19.60;17.13;;;;;;;;;;6162058;23;20165;-83
2022/03/20 10:43:28;;;;;;;18.53;15.83;;;;;;;;;;6162699;23;20170;-82
2022/03/20 10:46:01;;;;;;;21.63;16.40;;;;;;;;;;6163890;23;20190;-81
2022/03/20 10:48:38;;;;;;;19.93;16.57;;;;;;;;;;6136552;23;20186;-82
2022/03/20 10:51:05;;;;;;;20.83;16.57;;;;;;;;;;6135564;23;20639;-82
2022/03/20 10:53:31;;;;;;;23.70;17.33;;;;;;;;;;6134570;23;20181;-82
2022/03/20 10:55:58;;;;;;;21.73;16.77;;;;;;;;;;6161814;23;20153;-82
2022/03/20 10:58:25;;;;;;;19.27;15.80;;;;;;;;;;6161395;23;20147;-84
2022/03/20 11:00:51;;;;;;;20.90;16.30;;;;;;;;;;6134945;23;20154;-83
2022/03/20 11:03:22;;;;;;;21.13;14.63;;;;;;;;;;6160379;23;20178;-83
2022/03/20 11:05:48;;;;;;;20.07;16.47;;;;;;;;;;6161074;23;20608;-83
2022/03/20 11:08:14;;;;;;;15.90;14.13;;;;;;;;;;6161086;23;20147;-83
2022/03/20 11:10:44;;;;;;;20.27;16.20;;;;;;;;;;6160872;23;20175;-83
2022/03/20 11:13:11;;;;;;;20.67;16.63;;;;;;;;;;6161391;23;20147;-83
2022/03/20 11:15:39;;;;;;;20.40;15.63;;;;;;;;;;6162402;23;20163;-83
2022/03/20 11:18:06;;;;;;;19.63;14.80;;;;;;;;;;6161189;23;20603;-83
2022/03/20 11:20:33;;;;;;;18.83;14.77;;;;;;;;;;6160986;23;20155;-83
2022/03/20 11:23:05;;;;;;;16.70;14.00;;;;;;;;;;6134849;23;20155;-84
2022/03/20 11:25:33;;;;;;;15.33;13.73;;;;;;;;;;6161702;23;20150;-83
2022/03/20 11:28:01;;;;;;;16.33;13.20;;;;;;;;;;6161399;23;20486;-82
2022/03/20 11:30:32;;;;;;;15.90;13.27;;;;;;;;;;6162344;23;20178;-83
2022/03/20 11:33:02;;;;;;;16.10;13.90;;;;;;;;;;6161464;23;20148;-83
2022/03/20 11:35:30;;;;;;;14.53;12.93;;;;;;;;;;6161456;23;20167;-83
2022/03/20 11:37:59;;;;;;;14.67;13.07;;;;;;;;;;6162139;23;20162;-84
2022/03/20 11:40:26;;;;;;;15.50;12.93;;;;;;;;;;6136709;23;20159;-84
2022/03/20 11:43:12;;;;;;;15.90;13.03;;;;;;;;;;6163018;23;20155;-84
2022/03/20 11:45:38;;;;;;;13.90;12.33;;;;;;;;;;6146384;23;20163;-81
2022/03/20 11:48:16;;;;;;;16.17;12.60;;;;;;;;;;6161642;23;20588;-82
2022/03/20 11:50:43;;;;;;;13.67;11.93;;;;;;;;;;6135909;23;20147;-83
2022/03/20 11:53:10;;;;;;;15.67;12.10;;;;;;;;;;6161809;23;20479;-80
2022/03/20 11:55:40;;;;;;;14.97;12.27;;;;;;;;;;6162149;23;20608;-83
2022/03/20 11:58:09;;;;;;;15.93;13.43;;;;;;;;;;6162200;23;20148;-82
2022/03/20 12:00:36;;;;;;;18.80;15.00;;;;;;;;;;6162446;23;20155;-82
2022/03/20 12:05:36;;;;;;;21.30;16.60;;;;;;;;;;6194911;22;20236;-82
2022/03/20 12:08:05;;;;;;;19.10;15.70;;;;;;;;;;6191857;23;20473;-83
2022/03/20 12:10:37;;;;;;;17.40;15.60;;;;;;;;;;6192043;23;20174;-83
2022/03/20 12:13:04;;;;;;;17.73;15.83;;;;;;;;;;6139082;23;20158;-83
2022/03/20 12:15:31;;;;;;;19.43;15.50;;;;;;;;;;6190119;23;20153;-83
2022/03/20 12:18:04;;;;;;;21.87;17.60;;;;;;;;;;6189126;23;20139;-84
2022/03/20 12:20:49;;;;;;;19.87;15.93;;;;;;;;;;6191692;23;20149;-83
2022/03/20 12:23:33;;;;;;;22.07;16.43;;;;;;;;;;6191297;23;20229;-83
2022/03/20 12:26:19;;;;;;;17.70;14.97;;;;;;;;;;6191853;23;20150;-82
2022/03/20 12:28:45;;;;;;;17.07;13.93;;;;;;;;;;6190992;23;20174;-84
2022/03/20 12:31:11;;;;;;;20.73;15.13;;;;;;;;;;6191356;23;20523;-83
2022/03/20 12:33:37;;;;;;;20.87;15.90;;;;;;;;;;6191696;23;20178;-83
2022/03/20 12:36:03;;;;;;;18.83;15.90;;;;;;;;;;6191770;23;20203;-83
2022/03/20 12:38:37;;;;;;;16.30;14.37;;;;;;;;;;6140941;23;20170;-83
2022/03/20 12:41:11;;;;;;;18.43;14.43;;;;;;;;;;6191111;23;20233;-83
2022/03/20 12:43:38;;;;;;;17.30;15.37;;;;;;;;;;6190684;23;20567;-83
2022/03/20 12:46:04;;;;;;;18.60;16.13;;;;;;;;;;6191391;23;20157;-83
2022/03/20 12:48:32;;;;;;;18.27;16.37;;;;;;;;;;6191922;23;20174;-83
2022/03/20 12:51:11;;;;;;;15.07;13.40;;;;;;;;;;6164664;23;20147;-83
2022/03/20 12:53:41;;;;;;;17.20;15.37;;;;;;;;;;6191445;23;20178;-83
2022/03/20 12:58:53;;;;;;;16.33;13.70;;;;;;;;;;6191255;23;20215;-83
2022/03/20 13:01:19;;;;;;;17.13;14.30;;;;;;;;;;6194203;23;20159;-83
2022/03/20 13:03:45;;;;;;;15.70;14.00;;;;;;;;;;6193002;23;20220;-83
2022/03/20 13:06:11;;;;;;;15.47;11.70;;;;;;;;;;6197556;23;20182;-83
2022/03/20 13:08:38;;;;;;;10.50;9.43;;;;;;;;;;6204283;23;20175;-85
2022/03/20 13:14:04;;;;;;;12.90;10.43;;;;;;;;;;6206417;23;20203;-82
2022/03/20 13:16:30;;;;;;;13.80;11.87;;;;;;;;;;6207661;23;20135;-83
2022/03/20 13:18:56;;;;;;;15.70;11.83;;;;;;;;;;6203231;23;20155;-85
2022/03/20 13:21:22;;;;;;;15.47;12.07;;;;;;;;;;6170556;23;20234;-83
2022/03/20 13:23:48;;;;;;;14.37;12.83;;;;;;;;;;6170358;23;20210;-83
2022/03/20 13:26:18;;;;;;;13.00;11.73;;;;;;;;;;6196083;23;20183;-83
2022/03/20 13:28:45;;;;;;;13.37;11.20;;;;;;;;;;6195836;23;20154;-84
2022/03/20 13:31:12;;;;;;;15.90;11.87;;;;;;;;;;6195102;23;20170;-83
2022/03/20 13:33:40;;;;;;;13.87;11.20;;;;;;;;;;6168100;23;20172;-83
2022/03/20 13:36:08;;;;;;;14.70;11.97;;;;;;;;;;6199920;23;20151;-83
2022/03/20 13:38:43;;;;;;;14.83;11.47;;;;;;;;;;6205988;23;20180;-83
2022/03/20 13:41:13;;;;;;;14.67;10.60;;;;;;;;;;6200289;23;20664;-83
2022/03/20 13:43:40;;;;;;;14.87;11.17;;;;;;;;;;6194739;23;20240;-82
2022/03/20 13:46:17;;;;;;;11.60;10.30;;;;;;;;;;6194873;23;20160;-83
2022/03/20 13:48:43;;;;;;;11.40;10.20;;;;;;;;;;6194492;23;20146;-83
2022/03/20 13:51:09;;;;;;;13.10;10.50;;;;;;;;;;6194471;23;20155;-82
2022/03/20 13:53:36;;;;;;;11.97;9.97;;;;;;;;;;6194481;23;20181;-83
2022/03/20 13:56:02;;;;;;;14.53;11.43;;;;;;;;;;6194848;23;20237;-83
2022/03/20 13:58:28;;;;;;;10.73;8.87;;;;;;;;;;6193468;23;20168;-83
2022/03/20 14:01:01;;;;;;;14.47;9.20;;;;;;;;;;6193497;23;20149;-84
2022/03/20 14:03:30;;;;;;;11.90;9.03;;;;;;;;;;6193232;23;20167;-83
2022/03/20 14:05:56;;;;;;;11.40;8.93;;;;;;;;;;6193339;23;20135;-83
2022/03/20 14:08:23;;;;;;;10.83;9.73;;;;;;;;;;6193351;23;20494;-83
2022/03/20 14:10:49;;;;;;;10.43;9.03;;;;;;;;;;6166486;23;20209;-83
2022/03/20 14:13:19;;;;;;;12.00;9.33;;;;;;;;;;6194043;23;20616;-83
2022/03/20 14:15:54;;;;;;;13.13;11.00;;;;;;;;;;6167505;23;20228;-83
2022/03/20 14:18:20;;;;;;;11.83;8.73;;;;;;;;;;6192518;23;20164;-83
2022/03/20 14:20:46;;;;;;;13.23;8.67;;;;;;;;;;6166482;23;20222;-83
2022/03/20 14:23:12;;;;;;;9.57;8.60;;;;;;;;;;6193577;23;20199;-83
2022/03/20 14:25:42;;;;;;;9.67;8.50;;;;;;;;;;6193543;23;20590;-83
2022/03/20 14:28:10;;;;;;;10.13;9.23;;;;;;;;;;6192494;23;20624;-83
2022/03/20 14:41:41;;;;;;;12.30;9.50;;;;;;;;;;6192446;23;20147;-83
2022/03/20 14:44:14;;;;;;;12.63;9.93;;;;;;;;;;6192233;23;20252;-83
2022/03/20 14:46:44;;;;;;;13.13;10.23;;;;;;;;;;6191377;23;20179;-80
2022/03/20 14:49:11;;;;;;;13.47;10.73;;;;;;;;;;6191354;23;20552;-81
2022/03/20 14:51:38;;;;;;;13.37;10.63;;;;;;;;;;6165632;23;20167;-82
2022/03/20 14:54:08;;;;;;;13.93;10.37;;;;;;;;;;6164488;23;20315;-84
2022/03/20 14:56:34;;;;;;;11.27;10.07;;;;;;;;;;6192093;23;20154;-83
2022/03/20 14:59:00;;;;;;;11.53;9.47;;;;;;;;;;6190835;23;20205;-81
2022/03/20 15:01:27;;;;;;;13.27;9.93;;;;;;;;;;6190280;23;20144;-82
2022/03/20 15:03:53;;;;;;;10.20;9.13;;;;;;;;;;6165435;23;20193;-81
2022/03/20 15:06:22;;;;;;;10.83;9.77;;;;;;;;;;6190510;23;20162;-81
2022/03/20 15:11:34;;;;;;;12.50;10.33;;;;;;;;;;6190328;23;20204;-81
2022/03/20 15:14:01;;;;;;;13.23;10.20;;;;;;;;;;6190555;23;20177;-81
2022/03/20 15:16:27;;;;;;;11.73;10.50;;;;;;;;;;6189045;23;20158;-81